Time;durP1;ratioP1;P1;durP2;ratioP2;P2;SDS_P1;SDS_P2;PMS_P1;PMS_P2;Temp;Humidity;BMP_temperature;BMP_pressure;BME280_temperature;BME280_humidity;BME280_pressure;Samples;Min_cycle;Max_cycle;Signal;HPM_P1;HPM_P2
2023/10/04 00:01:09;;;;;;;0.10;0.10;;;14.90;99.90;;;;;;5022215;28;20540;-84
2023/10/04 00:03:36;;;;;;;0.00;0.00;;;14.90;99.90;;;;;;5030675;28;20036;-84
2023/10/04 00:06:02;;;;;;;0.00;0.00;;;14.90;99.90;;;;;;5022958;28;20025;-85
2023/10/04 00:08:29;;;;;;;0.00;0.00;;;14.80;99.90;;;;;;5024404;28;20038;-83
2023/10/04 00:10:54;;;;;;;0.00;0.00;;;14.60;99.90;;;;;;5025449;28;20029;-85
2023/10/04 00:13:20;;;;;;;0.00;0.00;;;14.60;99.90;;;;;;5024034;28;20044;-83
2023/10/04 00:15:46;;;;;;;0.00;0.00;;;14.60;99.90;;;;;;5022702;28;20397;-84
2023/10/04 00:18:11;;;;;;;0.00;0.00;;;14.60;99.90;;;;;;5025355;28;20030;-84
2023/10/04 00:20:38;;;;;;;0.00;0.00;;;14.50;99.90;;;;;;5025007;28;20051;-83
2023/10/04 00:23:05;;;;;;;0.03;0.03;;;14.40;99.90;;;;;;5019053;28;20037;-84
2023/10/04 00:25:33;;;;;;;0.00;0.00;;;14.30;99.90;;;;;;5025898;28;20045;-84
2023/10/04 00:27:59;;;;;;;0.00;0.00;;;14.30;99.90;;;;;;5025183;28;20503;-83
2023/10/04 00:30:26;;;;;;;0.00;0.00;;;14.30;99.90;;;;;;5024570;28;20040;-84
2023/10/04 00:32:57;;;;;;;0.38;0.38;;;14.60;99.90;;;;;;5019132;28;20037;-85
2023/10/04 00:35:23;;;;;;;0.00;0.00;;;14.30;99.90;;;;;;5018103;28;20280;-83
2023/10/04 00:37:55;;;;;;;0.00;0.00;;;14.10;99.90;;;;;;5024419;28;20030;-84
2023/10/04 00:40:32;;;;;;;0.00;0.00;;;14.10;99.90;;;;;;5024724;28;20044;-85
2023/10/04 00:43:01;;;;;;;0.00;0.00;;;14.10;99.90;;;;;;5024600;28;20528;-83
2023/10/04 00:45:33;;;;;;;0.00;0.00;;;14.10;99.90;;;;;;5024761;28;20399;-84
2023/10/04 00:48:04;;;;;;;0.00;0.00;;;14.00;99.90;;;;;;5025508;28;20057;-87
2023/10/04 00:50:31;;;;;;;0.00;0.00;;;14.00;99.90;;;;;;5024771;28;20124;-86
2023/10/04 00:53:08;;;;;;;0.00;0.00;;;14.10;99.90;;;;;;5021262;28;20196;-84
2023/10/04 00:55:35;;;;;;;0.00;0.00;;;14.00;99.90;;;;;;5024568;28;20108;-83
2023/10/04 00:58:05;;;;;;;;;;;14.20;99.90;;;;;;5025282;28;20104;-84
2023/10/04 01:00:31;;;;;;;0.00;0.00;;;13.90;99.90;;;;;;5024804;28;20044;-83
2023/10/04 01:02:57;;;;;;;0.00;0.00;;;14.00;99.90;;;;;;5024423;28;20108;-84
2023/10/04 01:05:25;;;;;;;0.10;0.10;;;13.90;99.90;;;;;;5024461;28;20087;-84
2023/10/04 01:07:52;;;;;;;0.00;0.00;;;13.80;99.90;;;;;;5021885;28;20308;-83
2023/10/04 01:10:21;;;;;;;0.00;0.00;;;13.80;99.90;;;;;;5023548;28;20030;-84
2023/10/04 01:12:51;;;;;;;0.10;0.10;;;13.80;99.90;;;;;;5023597;28;20029;-84
2023/10/04 01:15:28;;;;;;;0.10;0.10;;;13.80;99.90;;;;;;5032961;28;20032;-83
2023/10/04 01:17:55;;;;;;;0.00;0.00;;;13.80;99.90;;;;;;5013964;28;20064;-83
2023/10/04 01:20:27;;;;;;;0.00;0.00;;;13.80;99.90;;;;;;5024567;28;20025;-84
2023/10/04 01:23:05;;;;;;;0.00;0.00;;;13.80;99.90;;;;;;5024880;28;20685;-84
2023/10/04 01:25:33;;;;;;;0.00;0.00;;;13.70;99.90;;;;;;5023833;28;20122;-85
2023/10/04 01:28:01;;;;;;;0.00;0.00;;;13.80;99.90;;;;;;5024807;28;20021;-85
2023/10/04 01:30:31;;;;;;;0.00;0.00;;;13.80;99.90;;;;;;5024212;28;20025;-86
2023/10/04 01:33:00;;;;;;;0.15;0.15;;;13.70;99.90;;;;;;5024488;28;20049;-86
2023/10/04 01:35:27;;;;;;;0.05;0.05;;;13.70;99.90;;;;;;5034628;28;20736;-84
2023/10/04 01:37:53;;;;;;;0.08;0.08;;;13.70;99.90;;;;;;5023260;28;20790;-85
2023/10/04 01:40:25;;;;;;;0.00;0.00;;;13.70;99.90;;;;;;5022920;28;20060;-84
2023/10/04 01:42:52;;;;;;;0.10;0.10;;;13.60;99.90;;;;;;5024164;28;20037;-85
2023/10/04 01:45:21;;;;;;;0.10;0.10;;;13.60;99.90;;;;;;5024371;28;20124;-85
2023/10/04 01:47:47;;;;;;;0.00;0.00;;;13.60;99.90;;;;;;5024522;28;20826;-86
2023/10/04 01:50:13;;;;;;;0.00;0.00;;;13.60;99.90;;;;;;5023778;28;20025;-87
2023/10/04 01:52:39;;;;;;;0.00;0.00;;;13.60;99.90;;;;;;5027162;28;20168;-85
2023/10/04 01:55:10;;;;;;;0.00;0.00;;;13.50;99.90;;;;;;5029836;28;20680;-85
2023/10/04 01:57:38;;;;;;;0.00;0.00;;;13.50;99.90;;;;;;5028310;28;20124;-86
2023/10/04 02:00:06;;;;;;;0.00;0.00;;;13.40;99.90;;;;;;5027870;28;20021;-85
2023/10/04 02:02:32;;;;;;;0.00;0.00;;;13.40;99.90;;;;;;5026901;28;20145;-85
2023/10/04 02:04:59;;;;;;;0.00;0.00;;;13.50;99.90;;;;;;5031166;28;20108;-85
2023/10/04 02:07:25;;;;;;;;;;;13.50;99.90;;;;;;5032957;28;20041;-85
2023/10/04 02:09:51;;;;;;;0.10;0.10;;;13.50;99.90;;;;;;5027592;28;20011;-86
2023/10/04 02:12:18;;;;;;;0.00;0.00;;;13.40;99.90;;;;;;5024104;28;20120;-84
2023/10/04 02:14:46;;;;;;;0.10;0.10;;;13.40;99.90;;;;;;5024549;28;20033;-85
2023/10/04 02:17:16;;;;;;;0.00;0.00;;;13.30;99.90;;;;;;5023979;28;20798;-84
2023/10/04 02:19:45;;;;;;;0.00;0.00;;;13.40;99.90;;;;;;5017315;28;20029;-86
2023/10/04 02:22:12;;;;;;;0.00;0.00;;;13.40;99.90;;;;;;5017989;28;20401;-84
2023/10/04 02:24:40;;;;;;;;;;;13.30;99.90;;;;;;5026443;28;20053;-86
2023/10/04 02:27:09;;;;;;;0.00;0.00;;;13.40;99.90;;;;;;5024125;28;19913;-85
2023/10/04 02:29:38;;;;;;;0.10;0.10;;;13.40;99.90;;;;;;5025044;28;20068;-85
2023/10/04 02:32:10;;;;;;;0.00;0.00;;;13.40;99.90;;;;;;5017333;28;20033;-88
2023/10/04 02:34:37;;;;;;;0.00;0.00;;;13.30;99.90;;;;;;5024190;28;20041;-87
2023/10/04 02:37:06;;;;;;;0.00;0.00;;;13.30;99.90;;;;;;5025532;28;20110;-83
2023/10/04 02:39:33;;;;;;;0.10;0.10;;;13.30;99.90;;;;;;5032711;28;20112;-87
2023/10/04 02:41:59;;;;;;;;;;;13.20;99.90;;;;;;5027963;28;20026;-86
2023/10/04 02:44:25;;;;;;;0.00;0.00;;;13.20;99.90;;;;;;5026162;28;20047;-84
2023/10/04 02:46:51;;;;;;;0.00;0.00;;;13.20;99.90;;;;;;5028186;28;20030;-82
2023/10/04 02:49:16;;;;;;;0.00;0.00;;;13.20;99.90;;;;;;5018768;28;20137;-85
2023/10/04 02:51:45;;;;;;;0.00;0.00;;;13.20;99.90;;;;;;5023424;28;20500;-85
2023/10/04 02:54:11;;;;;;;0.00;0.00;;;13.20;99.90;;;;;;5024419;28;20488;-87
2023/10/04 02:56:42;;;;;;;0.00;0.00;;;13.10;99.90;;;;;;5028424;28;20083;-88
2023/10/04 02:59:07;;;;;;;0.00;0.00;;;13.10;99.90;;;;;;5021227;28;20029;-86
2023/10/04 03:01:33;;;;;;;0.20;0.20;;;13.00;99.90;;;;;;5024776;28;20021;-85
2023/10/04 03:03:59;;;;;;;0.10;0.10;;;13.00;99.90;;;;;;5028013;28;20037;-85
2023/10/04 03:06:26;;;;;;;0.00;0.00;;;12.90;99.90;;;;;;5034133;28;20026;-88
2023/10/04 03:08:51;;;;;;;0.00;0.00;;;13.00;99.90;;;;;;5028546;28;20025;-85
2023/10/04 03:11:20;;;;;;;0.00;0.00;;;13.00;99.90;;;;;;5030691;28;20037;-86
2023/10/04 03:13:47;;;;;;;0.00;0.00;;;12.90;99.90;;;;;;5029936;28;20030;-85
2023/10/04 03:16:12;;;;;;;;;;;12.90;99.90;;;;;;5029847;28;20388;-85
2023/10/04 03:18:39;;;;;;;0.10;0.10;;;12.80;99.90;;;;;;5032138;28;19905;-84
2023/10/04 03:23:40;;;;;;;0.00;0.00;;;12.80;99.90;;;;;;5027669;28;20847;-87
2023/10/04 03:26:06;;;;;;;0.10;0.10;;;12.80;99.90;;;;;;5022695;28;20072;-85
2023/10/04 03:28:33;;;;;;;0.10;0.10;;;12.80;99.90;;;;;;5031018;28;20029;-85
2023/10/04 03:31:03;;;;;;;;;;;12.70;99.90;;;;;;5024223;28;21117;-86
2023/10/04 03:33:33;;;;;;;0.10;0.10;;;12.70;99.90;;;;;;5011337;28;19924;-86
2023/10/04 03:36:04;;;;;;;0.20;0.20;;;12.70;99.90;;;;;;5024088;28;20026;-84
2023/10/04 03:38:33;;;;;;;0.10;0.10;;;12.60;99.90;;;;;;5023791;28;20025;-83
2023/10/04 03:41:00;;;;;;;0.10;0.10;;;12.60;99.90;;;;;;5021734;28;20087;-84
2023/10/04 03:43:25;;;;;;;;;;;12.60;99.90;;;;;;5041374;28;20056;-86
2023/10/04 03:45:51;;;;;;;0.00;0.00;;;12.50;99.90;;;;;;5028562;28;19913;-89
2023/10/04 03:48:17;;;;;;;0.00;0.00;;;12.60;99.90;;;;;;5022885;28;20040;-87
2023/10/04 03:50:48;;;;;;;0.00;0.00;;;12.60;99.90;;;;;;5029203;28;20033;-86
2023/10/04 03:53:21;;;;;;;0.00;0.00;;;12.60;99.90;;;;;;5024409;28;20476;-86
2023/10/04 03:55:47;;;;;;;0.00;0.00;;;12.60;99.90;;;;;;5023316;28;20032;-86
2023/10/04 03:58:19;;;;;;;0.00;0.00;;;12.60;99.90;;;;;;5024641;28;20862;-86
2023/10/04 04:00:45;;;;;;;3.65;1.27;;;12.60;99.90;;;;;;5022195;28;20109;-87
2023/10/04 04:03:12;;;;;;;0.00;0.00;;;12.50;99.90;;;;;;5024118;28;20025;-87
2023/10/04 04:05:44;;;;;;;0.00;0.00;;;12.50;99.90;;;;;;5028686;28;20070;-87
2023/10/04 04:08:11;;;;;;;0.10;0.10;;;12.40;99.90;;;;;;5026586;28;20029;-85
2023/10/04 04:10:37;;;;;;;0.10;0.10;;;12.40;99.90;;;;;;5026650;28;20030;-85
2023/10/04 04:13:07;;;;;;;0.00;0.00;;;12.40;99.90;;;;;;5024486;28;20119;-83
2023/10/04 04:15:35;;;;;;;0.00;0.00;;;12.40;99.90;;;;;;5024411;28;20100;-85
2023/10/04 04:18:06;;;;;;;0.00;0.00;;;12.40;99.90;;;;;;5026151;28;20056;-85
2023/10/04 04:20:35;;;;;;;0.00;0.00;;;12.40;99.90;;;;;;5024962;28;20583;-86
2023/10/04 04:23:04;;;;;;;0.00;0.00;;;12.30;99.90;;;;;;5024179;28;20033;-85
2023/10/04 04:25:30;;;;;;;0.00;0.00;;;12.30;99.90;;;;;;5025030;28;20045;-86
2023/10/04 04:27:58;;;;;;;0.10;0.10;;;12.20;99.90;;;;;;5034332;28;20021;-85
2023/10/04 04:30:35;;;;;;;0.00;0.00;;;12.20;99.90;;;;;;5025353;28;20264;-84
2023/10/04 04:33:07;;;;;;;0.20;0.20;;;12.20;99.90;;;;;;5020562;28;20049;-85
2023/10/04 04:38:14;;;;;;;;;;;12.20;99.90;;;;;;5018876;28;20128;-85
2023/10/04 04:40:44;;;;;;;0.10;0.10;;;12.20;99.90;;;;;;5023363;28;19919;-86
2023/10/04 04:45:51;;;;;;;0.08;0.08;;;12.20;99.90;;;;;;5022495;28;20030;-84
2023/10/04 04:48:35;;;;;;;0.20;0.20;;;12.30;99.90;;;;;;5023582;28;20040;-85
2023/10/04 04:51:19;;;;;;;0.57;0.57;;;12.20;99.90;;;;;;5022302;28;20515;-85
2023/10/04 04:53:52;;;;;;;0.10;0.10;;;12.20;99.90;;;;;;5025359;28;20134;-84
2023/10/04 04:56:21;;;;;;;0.00;0.00;;;12.10;99.90;;;;;;5026811;28;20021;-84
2023/10/04 04:58:47;;;;;;;0.10;0.10;;;12.10;99.90;;;;;;5023388;28;20030;-85
2023/10/04 05:01:14;;;;;;;0.05;0.05;;;12.00;99.90;;;;;;5020341;28;20533;-83
2023/10/04 05:03:45;;;;;;;0.20;0.20;;;12.00;99.90;;;;;;5025648;28;20037;-83
2023/10/04 05:06:34;;;;;;;0.10;0.10;;;11.90;99.90;;;;;;5025895;28;20095;-85
2023/10/04 05:08:58;;;;;;;0.20;0.20;;;11.80;99.90;;;;;;5016606;28;20033;-83
2023/10/04 05:11:24;;;;;;;0.10;0.10;;;11.70;99.90;;;;;;5024146;28;20029;-85
2023/10/04 05:13:51;;;;;;;0.10;0.10;;;11.70;99.90;;;;;;5024520;28;20107;-86
2023/10/04 05:16:17;;;;;;;0.00;0.00;;;11.70;99.90;;;;;;5025302;28;20040;-87
2023/10/04 05:18:43;;;;;;;0.10;0.10;;;11.70;99.90;;;;;;5019484;28;20038;-87
2023/10/04 05:21:14;;;;;;;0.10;0.10;;;11.70;99.90;;;;;;5023047;28;20052;-86
2023/10/04 05:23:39;;;;;;;0.10;0.10;;;11.60;99.90;;;;;;5017414;28;20799;-87
2023/10/04 05:26:08;;;;;;;0.10;0.10;;;11.70;99.90;;;;;;5022582;28;20060;-82
2023/10/04 05:28:34;;;;;;;0.10;0.10;;;11.70;99.90;;;;;;5022292;28;20104;-82
2023/10/04 05:31:00;;;;;;;0.10;0.10;;;11.60;99.90;;;;;;5020762;28;20025;-82
2023/10/04 05:33:26;;;;;;;0.00;0.00;;;11.60;99.90;;;;;;5023563;28;20045;-86
2023/10/04 05:35:55;;;;;;;0.10;0.10;;;11.60;99.90;;;;;;5025558;28;20029;-85
2023/10/04 05:38:24;;;;;;;0.10;0.10;;;11.50;99.90;;;;;;5018890;28;20029;-88
2023/10/04 05:40:51;;;;;;;0.10;0.10;;;11.50;99.90;;;;;;5048795;28;20128;-87
2023/10/04 05:43:18;;;;;;;0.00;0.00;;;11.50;99.90;;;;;;5021657;28;20574;-84
2023/10/04 05:45:44;;;;;;;;;;;11.60;99.90;;;;;;5023999;28;20029;-86
2023/10/04 05:48:11;;;;;;;0.10;0.10;;;11.60;99.90;;;;;;5024607;28;20126;-85
2023/10/04 05:50:37;;;;;;;0.10;0.10;;;11.70;99.90;;;;;;5024138;28;20049;-87
2023/10/04 05:53:07;;;;;;;0.10;0.10;;;11.70;99.90;;;;;;5023852;28;20029;-81
2023/10/04 05:55:37;;;;;;;0.00;0.00;;;11.60;99.90;;;;;;5022660;28;20332;-87
2023/10/04 05:58:07;;;;;;;0.10;0.10;;;11.60;99.90;;;;;;5024652;28;20033;-84
2023/10/04 06:00:34;;;;;;;2.60;2.50;;;11.60;99.90;;;;;;5023519;28;20022;-85
2023/10/04 06:03:00;;;;;;;;;;;11.60;99.90;;;;;;5020050;28;20043;-84
2023/10/04 06:05:28;;;;;;;0.10;0.10;;;11.50;99.90;;;;;;5015592;28;19919;-91
2023/10/04 06:07:55;;;;;;;0.10;0.10;;;11.40;99.90;;;;;;5026313;28;20048;-90
2023/10/04 06:10:23;;;;;;;0.00;0.00;;;11.70;99.90;;;;;;5027208;28;20033;-86
2023/10/04 06:12:51;;;;;;;0.10;0.10;;;11.90;99.90;;;;;;5028808;28;20095;-88
2023/10/04 06:15:17;;;;;;;0.00;0.00;;;12.10;99.90;;;;;;5022480;28;20093;-89
2023/10/04 06:17:47;;;;;;;6.70;1.05;;;12.20;99.90;;;;;;5028142;28;20033;-87
2023/10/04 06:20:24;;;;;;;0.00;0.00;;;12.40;99.90;;;;;;5026864;28;20080;-88
2023/10/04 06:22:53;;;;;;;0.10;0.10;;;12.70;99.90;;;;;;5029205;28;20032;-89
2023/10/04 06:25:24;;;;;;;0.00;0.00;;;12.90;99.90;;;;;;5028650;28;20818;-88
2023/10/04 06:27:51;;;;;;;0.00;0.00;;;13.00;99.90;;;;;;5020414;28;20386;-88
2023/10/04 06:30:22;;;;;;;0.10;0.10;;;13.10;99.90;;;;;;5022244;28;20516;-89
2023/10/04 06:32:52;;;;;;;0.08;0.08;;;13.30;99.90;;;;;;5022434;28;20091;-88
2023/10/04 06:35:22;;;;;;;0.00;0.00;;;13.50;99.90;;;;;;5024079;28;20061;-88
2023/10/04 06:37:52;;;;;;;0.00;0.00;;;13.90;99.90;;;;;;5032322;28;20021;-88
2023/10/04 06:40:19;;;;;;;0.00;0.00;;;14.20;99.90;;;;;;5023333;28;20033;-87
2023/10/04 06:42:45;;;;;;;;;;;14.70;98.20;;;;;;5024272;28;20030;-87
2023/10/04 06:45:13;;;;;;;0.00;0.00;;;15.10;97.10;;;;;;5022391;28;19916;-88
2023/10/04 06:47:44;;;;;;;0.00;0.00;;;15.40;95.60;;;;;;5023893;28;20512;-88
2023/10/04 06:50:19;;;;;;;0.00;0.00;;;15.20;95.70;;;;;;5018467;28;20576;-89
2023/10/04 06:52:50;;;;;;;0.00;0.00;;;15.60;95.00;;;;;;5023189;28;20079;-88
2023/10/04 06:55:18;;;;;;;0.00;0.00;;;15.50;94.90;;;;;;5023015;28;20628;-89
2023/10/04 06:57:45;;;;;;;0.00;0.00;;;15.70;94.60;;;;;;5021403;28;20120;-89
2023/10/04 07:00:19;;;;;;;0.00;0.00;;;15.50;94.80;;;;;;5023003;28;20052;-89
2023/10/04 07:02:58;;;;;;;0.00;0.00;;;15.30;95.30;;;;;;5023058;28;20113;-88
2023/10/04 07:05:32;;;;;;;0.00;0.00;;;15.70;94.60;;;;;;5023514;28;20381;-88
2023/10/04 07:07:58;;;;;;;0.00;0.00;;;15.60;94.40;;;;;;5019886;28;20025;-87
2023/10/04 07:10:28;;;;;;;0.00;0.00;;;15.70;94.10;;;;;;5023042;28;20096;-88
2023/10/04 07:12:56;;;;;;;0.00;0.00;;;16.10;93.60;;;;;;5022515;28;20033;-88
2023/10/04 07:15:24;;;;;;;0.00;0.00;;;16.00;93.90;;;;;;5022894;28;20041;-87
2023/10/04 07:17:50;;;;;;;0.00;0.00;;;16.00;93.30;;;;;;5021132;28;20049;-88
2023/10/04 07:20:18;;;;;;;0.00;0.00;;;16.20;92.60;;;;;;5022665;28;20026;-87
2023/10/04 07:22:58;;;;;;;0.00;0.00;;;16.50;92.40;;;;;;5022930;28;20362;-88
2023/10/04 07:25:26;;;;;;;0.00;0.00;;;17.20;91.60;;;;;;5018002;28;20053;-88
2023/10/04 07:27:52;;;;;;;0.00;0.00;;;17.60;90.90;;;;;;5022935;28;20389;-89
2023/10/04 07:30:19;;;;;;;0.00;0.00;;;18.30;89.40;;;;;;5021454;28;20036;-89
2023/10/04 07:32:46;;;;;;;0.00;0.00;;;17.60;88.70;;;;;;5014639;28;20044;-89
2023/10/04 07:35:19;;;;;;;0.00;0.00;;;17.70;90.30;;;;;;5022348;28;21062;-88
2023/10/04 07:37:45;;;;;;;0.00;0.00;;;18.10;88.90;;;;;;5022707;28;20022;-89
2023/10/04 07:40:14;;;;;;;;;;;18.40;87.20;;;;;;5021550;28;20562;-88
2023/10/04 07:42:42;;;;;;;0.00;0.00;;;18.90;86.60;;;;;;5026344;28;19909;-89
2023/10/04 07:45:10;;;;;;;0.22;0.22;;;18.50;87.40;;;;;;5025525;28;20038;-89
2023/10/04 07:47:37;;;;;;;0.00;0.00;;;18.90;84.70;;;;;;5023311;28;20380;-89
2023/10/04 07:50:05;;;;;;;0.00;0.00;;;18.80;84.50;;;;;;5027214;28;20933;-89
2023/10/04 07:52:31;;;;;;;0.03;0.03;;;18.80;84.90;;;;;;5027368;28;20032;-90
2023/10/04 07:54:59;;;;;;;0.00;0.00;;;18.90;85.10;;;;;;5032152;28;20767;-89
2023/10/04 07:57:26;;;;;;;0.00;0.00;;;19.30;84.90;;;;;;5027294;28;20021;-90
2023/10/04 07:59:51;;;;;;;0.00;0.00;;;19.20;82.10;;;;;;5025399;28;20652;-89
2023/10/04 08:02:17;;;;;;;0.00;0.00;;;19.40;82.00;;;;;;5027139;28;20037;-90
2023/10/04 08:04:45;;;;;;;0.00;0.00;;;19.00;82.20;;;;;;5026821;28;20083;-88
2023/10/04 08:07:14;;;;;;;0.00;0.00;;;19.40;79.90;;;;;;5026401;28;20056;-90
2023/10/04 08:09:40;;;;;;;0.00;0.00;;;19.40;80.00;;;;;;5025929;28;20033;-89
2023/10/04 08:12:07;;;;;;;0.00;0.00;;;19.80;81.10;;;;;;5024862;28;20429;-90
2023/10/04 08:14:33;;;;;;;0.00;0.00;;;19.00;79.50;;;;;;5026221;28;20038;-90
2023/10/04 08:17:00;;;;;;;0.00;0.00;;;19.20;81.40;;;;;;5026435;28;20029;-88
2023/10/04 08:19:26;;;;;;;0.00;0.00;;;19.00;81.10;;;;;;5025810;28;20507;-91
2023/10/04 08:21:52;;;;;;;0.00;0.00;;;19.50;76.70;;;;;;5026020;28;20025;-88
2023/10/04 08:24:20;;;;;;;0.00;0.00;;;19.80;76.00;;;;;;5025906;28;20049;-88
2023/10/04 08:26:48;;;;;;;0.00;0.00;;;20.30;77.70;;;;;;5025819;28;20029;-88
2023/10/04 08:29:14;;;;;;;0.00;0.00;;;20.10;77.00;;;;;;5030549;28;20029;-88
2023/10/04 08:31:40;;;;;;;0.00;0.00;;;19.40;78.40;;;;;;5019969;28;20025;-90
2023/10/04 08:34:06;;;;;;;4.50;1.03;;;19.10;78.30;;;;;;5026122;28;20160;-89
2023/10/04 08:36:33;;;;;;;0.00;0.00;;;19.20;78.00;;;;;;5025094;28;20022;-89
2023/10/04 08:39:00;;;;;;;0.00;0.00;;;18.70;79.30;;;;;;5025684;28;20045;-88
2023/10/04 08:41:27;;;;;;;0.00;0.00;;;19.10;79.40;;;;;;5025550;28;20711;-91
2023/10/04 08:43:53;;;;;;;0.00;0.00;;;19.10;78.90;;;;;;5025581;28;20107;-87
2023/10/04 08:46:19;;;;;;;0.00;0.00;;;19.20;77.70;;;;;;5025264;28;20120;-91
2023/10/04 08:48:53;;;;;;;;;;;19.80;79.60;;;;;;5025980;28;20026;-90
2023/10/04 08:51:48;;;;;;;0.00;0.00;;;19.30;76.60;;;;;;5020694;28;19913;-90
2023/10/04 08:54:21;;;;;;;0.00;0.00;;;18.70;78.50;;;;;;5025686;28;20033;-89
2023/10/04 08:57:13;;;;;;;0.00;0.00;;;19.30;77.50;;;;;;5017639;28;20033;-89
2023/10/04 08:59:40;;;;;;;0.00;0.00;;;19.70;76.70;;;;;;5022279;28;20029;-89
2023/10/04 09:02:10;;;;;;;0.00;0.00;;;20.30;76.00;;;;;;5025608;28;20032;-89
2023/10/04 09:04:39;;;;;;;0.00;0.00;;;20.70;75.50;;;;;;5023702;28;20045;-89
2023/10/04 09:07:10;;;;;;;0.00;0.00;;;20.80;75.40;;;;;;5025072;28;20021;-88
2023/10/04 09:09:40;;;;;;;0.00;0.00;;;20.70;73.10;;;;;;5025996;28;20148;-87
2023/10/04 09:12:07;;;;;;;0.00;0.00;;;20.60;73.70;;;;;;5025474;28;20054;-89
2023/10/04 09:14:33;;;;;;;0.00;0.00;;;20.50;73.60;;;;;;5024220;28;20036;-88
2023/10/04 09:17:19;;;;;;;0.00;0.00;;;21.00;74.90;;;;;;5025816;28;20534;-90
2023/10/04 09:19:45;;;;;;;;;;;21.00;73.10;;;;;;5026695;28;20021;-89
2023/10/04 09:22:11;;;;;;;0.00;0.00;;;20.80;73.60;;;;;;5023783;28;20311;-87
2023/10/04 09:24:57;;;;;;;0.00;0.00;;;21.50;72.50;;;;;;5025307;28;20063;-89
2023/10/04 09:27:23;;;;;;;0.00;0.00;;;21.40;71.10;;;;;;5024502;28;20048;-88
2023/10/04 09:29:49;;;;;;;0.00;0.00;;;21.40;71.40;;;;;;5025853;28;20037;-89
2023/10/04 09:32:18;;;;;;;0.00;0.00;;;21.50;72.00;;;;;;5017892;28;20030;-88
2023/10/04 09:34:59;;;;;;;0.00;0.00;;;21.50;72.10;;;;;;5025133;28;20115;-88
2023/10/04 09:37:25;;;;;;;0.00;0.00;;;21.40;70.70;;;;;;5017356;28;20036;-88
2023/10/04 09:40:06;;;;;;;0.00;0.00;;;21.00;71.00;;;;;;5025510;28;20026;-87
2023/10/04 09:42:45;;;;;;;0.00;0.00;;;20.70;69.80;;;;;;5024908;28;20025;-90
2023/10/04 09:45:12;;;;;;;0.00;0.00;;;20.00;72.60;;;;;;5024617;28;20025;-89
2023/10/04 09:47:38;;;;;;;0.00;0.00;;;20.30;73.50;;;;;;5024142;28;20030;-87
2023/10/04 09:50:12;;;;;;;0.05;0.05;;;20.10;72.70;;;;;;5024171;28;20573;-88
2023/10/04 09:52:38;;;;;;;0.00;0.00;;;19.80;75.60;;;;;;5028304;28;20022;-87
2023/10/04 09:55:05;;;;;;;0.00;0.00;;;19.50;75.10;;;;;;5023734;28;20022;-88
2023/10/04 09:57:35;;;;;;;0.00;0.00;;;19.70;75.20;;;;;;5023916;28;20039;-88
2023/10/04 10:00:06;;;;;;;0.00;0.00;;;19.80;74.60;;;;;;5024354;28;20029;-88
2023/10/04 10:02:36;;;;;;;0.00;0.00;;;19.90;76.70;;;;;;5023940;28;20032;-89
2023/10/04 10:05:06;;;;;;;0.00;0.00;;;19.90;74.50;;;;;;5024052;28;20602;-88
2023/10/04 10:07:33;;;;;;;1.00;0.85;;;19.40;73.20;;;;;;5023175;28;20022;-88
2023/10/04 10:10:12;;;;;;;0.00;0.00;;;19.60;74.10;;;;;;5010658;28;20397;-88
2023/10/04 10:12:43;;;;;;;0.00;0.00;;;19.30;74.20;;;;;;5023019;28;20114;-88
2023/10/04 10:15:11;;;;;;;0.00;0.00;;;19.70;74.20;;;;;;5022097;28;20028;-88
2023/10/04 10:17:38;;;;;;;0.00;0.00;;;19.70;76.20;;;;;;5023592;28;20032;-88
2023/10/04 10:20:09;;;;;;;0.00;0.00;;;19.80;74.50;;;;;;5022965;28;20211;-89
2023/10/04 10:22:55;;;;;;;0.00;0.00;;;19.80;76.00;;;;;;5022929;28;20086;-87
2023/10/04 10:25:22;;;;;;;0.00;0.00;;;19.80;74.80;;;;;;5017410;28;20061;-89
2023/10/04 10:27:51;;;;;;;0.00;0.00;;;19.80;74.60;;;;;;5022146;28;20117;-89
2023/10/04 10:30:18;;;;;;;0.00;0.00;;;20.30;74.00;;;;;;5023433;28;20056;-88
2023/10/04 10:32:54;;;;;;;0.00;0.00;;;20.30;75.30;;;;;;5015006;28;20052;-88
2023/10/04 10:35:49;;;;;;;0.00;0.00;;;20.30;74.40;;;;;;5015587;28;20767;-87
2023/10/04 10:38:27;;;;;;;0.00;0.00;;;20.20;74.30;;;;;;5010904;28;20045;-88
2023/10/04 10:40:53;;;;;;;0.00;0.00;;;20.60;73.10;;;;;;5024075;28;20367;-90
2023/10/04 10:43:19;;;;;;;0.00;0.00;;;21.00;72.40;;;;;;5024001;28;20048;-90
2023/10/04 10:45:44;;;;;;;0.00;0.00;;;20.70;74.80;;;;;;5023897;28;20036;-89
2023/10/04 10:48:13;;;;;;;0.00;0.00;;;20.60;71.10;;;;;;5021367;28;20041;-89
2023/10/04 10:50:41;;;;;;;0.00;0.00;;;20.50;71.50;;;;;;5024122;28;20034;-89
2023/10/04 10:53:11;;;;;;;0.10;0.10;;;20.20;71.70;;;;;;5023352;28;20026;-89
2023/10/04 10:55:41;;;;;;;0.00;0.00;;;20.30;72.70;;;;;;5023293;28;20145;-90
2023/10/04 10:58:10;;;;;;;0.00;0.00;;;20.10;73.40;;;;;;5021969;28;20377;-89
2023/10/04 11:00:36;;;;;;;0.00;0.00;;;19.90;72.80;;;;;;5024377;28;20026;-88
2023/10/04 11:03:05;;;;;;;0.00;0.00;;;20.20;73.20;;;;;;5023761;28;20628;-90
2023/10/04 11:05:31;;;;;;;0.00;0.00;;;20.20;73.70;;;;;;5022990;28;20141;-88
2023/10/04 11:07:57;;;;;;;0.20;0.20;;;20.50;74.90;;;;;;5022900;28;20033;-90
2023/10/04 11:10:25;;;;;;;0.00;0.00;;;20.40;72.80;;;;;;5022832;28;20179;-89
2023/10/04 11:12:57;;;;;;;0.00;0.00;;;20.10;73.50;;;;;;5023433;28;20369;-89
2023/10/04 11:15:26;;;;;;;0.00;0.00;;;20.20;74.10;;;;;;5021950;28;20026;-91
2023/10/04 11:17:52;;;;;;;0.00;0.00;;;20.00;73.80;;;;;;5025768;28;20025;-89
2023/10/04 11:20:20;;;;;;;0.00;0.00;;;20.10;73.30;;;;;;5029116;28;20040;-89
2023/10/04 11:22:48;;;;;;;0.00;0.00;;;19.90;75.00;;;;;;5022081;28;20025;-88
2023/10/04 11:25:14;;;;;;;0.00;0.00;;;20.00;72.40;;;;;;5024531;28;20443;-89
2023/10/04 11:27:47;;;;;;;0.00;0.00;;;20.30;75.10;;;;;;5027879;28;20024;-87
2023/10/04 11:30:16;;;;;;;0.00;0.00;;;20.30;73.00;;;;;;5026616;28;20033;-88
2023/10/04 11:32:45;;;;;;;0.00;0.00;;;20.20;72.30;;;;;;5020054;28;20676;-87
2023/10/04 11:35:11;;;;;;;0.00;0.00;;;20.00;71.40;;;;;;5026379;28;20030;-88
2023/10/04 11:37:44;;;;;;;0.00;0.00;;;20.00;73.00;;;;;;5026671;28;20031;-87
2023/10/04 11:40:12;;;;;;;0.00;0.00;;;19.90;72.00;;;;;;5033454;28;20025;-90
2023/10/04 11:42:39;;;;;;;0.00;0.00;;;20.00;69.10;;;;;;5026696;28;20109;-89
2023/10/04 11:45:23;;;;;;;0.00;0.00;;;20.00;68.80;;;;;;5025271;28;20473;-88
2023/10/04 11:48:01;;;;;;;0.00;0.00;;;20.20;66.80;;;;;;5026424;28;20476;-89
2023/10/04 11:50:43;;;;;;;0.00;0.00;;;20.30;66.10;;;;;;5021620;28;20515;-88
2023/10/04 11:53:11;;;;;;;0.00;0.00;;;20.20;69.80;;;;;;5025870;28;20048;-89
2023/10/04 11:55:37;;;;;;;0.00;0.00;;;20.20;70.30;;;;;;5026448;28;20100;-89
2023/10/04 11:58:07;;;;;;;0.00;0.00;;;20.40;69.60;;;;;;5026740;28;20091;-89
2023/10/04 12:00:33;;;;;;;0.00;0.00;;;20.40;68.90;;;;;;5024927;28;20033;-89
2023/10/04 12:02:59;;;;;;;0.00;0.00;;;20.00;65.50;;;;;;5026839;28;20501;-90
2023/10/04 12:05:26;;;;;;;0.75;0.75;;;20.20;67.80;;;;;;5027027;28;20036;-88
2023/10/04 12:07:51;;;;;;;;;;;20.30;69.70;;;;;;5026777;28;20029;-88
2023/10/04 12:10:18;;;;;;;0.00;0.00;;;20.50;68.20;;;;;;5016935;28;19909;-89
2023/10/04 12:12:44;;;;;;;0.00;0.00;;;20.50;67.00;;;;;;5012655;28;20030;-88
2023/10/04 12:15:11;;;;;;;0.00;0.00;;;20.40;66.40;;;;;;5024767;28;20481;-88
2023/10/04 12:17:36;;;;;;;0.00;0.00;;;20.30;67.40;;;;;;5025938;28;20437;-88
2023/10/04 12:20:07;;;;;;;0.00;0.00;;;20.20;65.80;;;;;;5025517;28;20113;-87
2023/10/04 12:22:32;;;;;;;0.00;0.00;;;20.30;66.40;;;;;;5025631;28;20021;-87
2023/10/04 12:25:01;;;;;;;1.40;1.30;;;20.40;66.30;;;;;;5025858;28;20060;-90
2023/10/04 12:27:27;;;;;;;0.00;0.00;;;20.40;65.60;;;;;;5016449;28;20036;-91
2023/10/04 12:29:52;;;;;;;0.00;0.00;;;20.30;64.10;;;;;;5017127;28;20022;-88
2023/10/04 12:32:19;;;;;;;0.00;0.00;;;20.30;66.70;;;;;;5023087;28;20040;-89
2023/10/04 12:34:45;;;;;;;0.70;0.70;;;20.10;63.30;;;;;;5016608;28;20068;-88
2023/10/04 12:37:12;;;;;;;0.00;0.00;;;20.10;60.50;;;;;;5023491;28;20029;-88
2023/10/04 12:39:38;;;;;;;0.00;0.00;;;20.50;61.50;;;;;;5025492;28;20033;-88
2023/10/04 12:42:04;;;;;;;0.00;0.00;;;20.70;64.30;;;;;;5024889;28;20025;-88
2023/10/04 12:44:30;;;;;;;0.00;0.00;;;20.40;57.50;;;;;;5024780;28;20041;-88
2023/10/04 12:46:57;;;;;;;0.00;0.00;;;20.60;59.50;;;;;;5024523;28;20037;-89
2023/10/04 12:49:23;;;;;;;0.00;0.00;;;20.40;59.90;;;;;;5019069;28;20018;-89
2023/10/04 12:51:49;;;;;;;0.00;0.00;;;20.40;57.30;;;;;;5021816;28;20260;-88
2023/10/04 12:54:16;;;;;;;0.00;0.00;;;20.50;57.20;;;;;;5024212;28;20038;-87
2023/10/04 12:56:42;;;;;;;0.00;0.00;;;20.70;57.00;;;;;;5022906;28;20305;-88
2023/10/04 12:59:10;;;;;;;0.00;0.00;;;20.90;57.40;;;;;;5025236;28;20031;-88
2023/10/04 13:01:36;;;;;;;0.00;0.00;;;21.10;58.10;;;;;;5024590;28;20091;-88
2023/10/04 13:04:05;;;;;;;0.00;0.00;;;21.00;58.60;;;;;;5018864;28;20543;-87
2023/10/04 13:06:34;;;;;;;0.00;0.00;;;21.00;58.90;;;;;;5024030;28;20785;-88